createdAt,value
2023-01-03T00:01:54.513Z,2.80
2023-01-03T00:04:21.960Z,3.17
2023-01-03T00:06:50.197Z,3.03
2023-01-03T00:09:19.823Z,3.30
2023-01-03T00:11:48.371Z,3.03
2023-01-03T00:14:18.429Z,3.20
2023-01-03T00:16:45.091Z,3.10
2023-01-03T00:19:14.456Z,3.13
2023-01-03T00:21:42.499Z,3.30
2023-01-03T00:24:10.005Z,3.05
2023-01-03T00:26:37.436Z,3.30
2023-01-03T00:29:04.578Z,2.90
2023-01-03T00:31:32.505Z,3.13
2023-01-03T00:33:59.212Z,3.58
2023-01-03T00:36:25.773Z,3.00
2023-01-03T00:38:52.324Z,3.30
2023-01-03T00:41:19.730Z,2.80
2023-01-03T00:43:48.107Z,2.95
2023-01-03T00:46:16.677Z,2.70
2023-01-03T00:48:44.869Z,2.60
2023-01-03T00:51:13.590Z,2.80
2023-01-03T00:53:41.160Z,3.10
2023-01-03T00:56:09.854Z,2.95
2023-01-03T00:58:37.001Z,3.33
2023-01-03T01:01:08.063Z,2.97
2023-01-03T01:03:35.111Z,3.10
2023-01-03T01:06:10.709Z,2.90
2023-01-03T01:08:37.291Z,2.88
2023-01-03T01:11:04.524Z,2.97
2023-01-03T01:13:32.961Z,2.70
2023-01-03T01:16:02.107Z,2.92
2023-01-03T01:18:29.066Z,2.97
2023-01-03T01:20:55.582Z,2.95
2023-01-03T01:23:23.546Z,2.80
2023-01-03T01:25:50.150Z,3.30
2023-01-03T01:28:16.897Z,3.40
2023-01-03T01:30:43.509Z,3.10
2023-01-03T01:33:10.160Z,2.70
2023-01-03T01:35:36.717Z,3.35
2023-01-03T01:38:03.463Z,2.63
2023-01-03T01:40:32.680Z,3.28
2023-01-03T01:43:10.849Z,3.10
2023-01-03T01:45:38.281Z,3.08
2023-01-03T01:48:07.934Z,3.03
2023-01-03T01:50:38.467Z,3.20
2023-01-03T01:53:08.911Z,3.10
2023-01-03T01:55:40.544Z,2.83
2023-01-03T01:58:08.268Z,3.00
2023-01-03T02:00:36.305Z,3.33
2023-01-03T02:03:03.705Z,3.08
2023-01-03T02:05:33.215Z,3.15
2023-01-03T02:08:00.757Z,2.90
2023-01-03T02:10:44.644Z,3.35
2023-01-03T02:13:22.696Z,3.40
2023-01-03T02:16:16.805Z,3.25
2023-01-03T02:18:51.998Z,3.22
2023-01-03T02:21:53.540Z,3.17
2023-01-03T02:24:44.831Z,3.50
2023-01-03T02:27:27.647Z,2.97
2023-01-03T02:30:29.234Z,3.20
2023-01-03T02:33:05.350Z,3.03
2023-01-03T02:35:37.649Z,2.87
2023-01-03T02:38:13.310Z,3.10
2023-01-03T02:40:45.105Z,2.90
2023-01-03T02:43:18.222Z,2.80
2023-01-03T02:45:59.202Z,2.63
2023-01-03T02:48:35.628Z,2.80
2023-01-03T02:51:07.423Z,2.65
2023-01-03T02:53:38.931Z,2.58
2023-01-03T02:56:10.793Z,2.42
2023-01-03T02:58:39.621Z,2.35
2023-01-03T03:01:10.692Z,2.33
2023-01-03T03:03:39.125Z,2.30
2023-01-03T03:06:12.560Z,2.55
2023-01-03T03:08:39.293Z,3.00
2023-01-03T03:11:06.864Z,2.45
2023-01-03T03:13:43.521Z,2.20
2023-01-03T03:16:19.090Z,2.80
2023-01-03T03:18:53.619Z,3.00
2023-01-03T03:21:21.056Z,2.25
2023-01-03T03:23:49.878Z,2.30
2023-01-03T03:26:20.800Z,2.43
2023-01-03T03:28:53.340Z,2.17
2023-01-03T03:31:27.527Z,2.58
2023-01-03T03:33:59.073Z,2.30
2023-01-03T03:36:31.157Z,2.60
2023-01-03T03:38:58.119Z,2.53
2023-01-03T03:41:33.439Z,2.30
2023-01-03T03:44:08.378Z,2.78
2023-01-03T03:46:41.783Z,2.60
2023-01-03T03:49:12.441Z,2.50
2023-01-03T03:51:43.143Z,2.30
2023-01-03T03:54:14.266Z,2.50
2023-01-03T03:56:44.858Z,2.30
2023-01-03T03:59:12.112Z,2.42
2023-01-03T04:01:42.387Z,2.30
2023-01-03T04:04:13.504Z,2.33
2023-01-03T04:06:43.929Z,1.58
2023-01-03T04:09:10.671Z,2.30
2023-01-03T04:11:37.261Z,2.20
2023-01-03T04:14:04.041Z,2.10
2023-01-03T04:16:30.576Z,2.10
2023-01-03T04:18:58.622Z,1.73
2023-01-03T04:21:25.697Z,2.20
2023-01-03T04:23:52.263Z,2.10
2023-01-03T04:26:18.761Z,1.80
2023-01-03T04:28:45.569Z,1.60
2023-01-03T04:31:12.137Z,1.90
2023-01-03T04:33:38.777Z,2.00
2023-01-03T04:36:07.508Z,2.13
2023-01-03T04:38:34.268Z,1.80
2023-01-03T04:41:04.344Z,1.73
2023-01-03T04:43:30.886Z,1.52
2023-01-03T04:45:57.626Z,1.73
2023-01-03T04:48:24.378Z,1.90
2023-01-03T04:50:54.853Z,1.70
2023-01-03T04:53:24.611Z,1.80
2023-01-03T04:55:53.420Z,1.98
2023-01-03T04:58:20.873Z,2.10
2023-01-03T05:00:47.749Z,2.00
2023-01-03T05:03:14.674Z,1.75
2023-01-03T05:05:41.296Z,1.63
2023-01-03T05:08:09.958Z,1.90
2023-01-03T05:10:39.161Z,2.03
2023-01-03T05:13:05.849Z,1.83
2023-01-03T05:15:36.006Z,2.47
2023-01-03T05:18:03.372Z,1.67
2023-01-03T05:20:29.940Z,1.80
2023-01-03T05:22:56.474Z,2.00
2023-01-03T05:25:23.055Z,1.95
2023-01-03T05:27:51.197Z,2.25
2023-01-03T05:30:17.956Z,2.03
2023-01-03T05:32:44.656Z,2.15
2023-01-03T05:35:11.216Z,1.98
2023-01-03T05:37:37.912Z,2.13
2023-01-03T05:40:05.359Z,1.98
2023-01-03T05:42:31.974Z,1.90
2023-01-03T05:44:59.811Z,2.05
2023-01-03T05:47:26.562Z,2.42
2023-01-03T05:49:53.327Z,1.90
2023-01-03T05:52:20.043Z,2.20
2023-01-03T05:54:46.797Z,2.00
2023-01-03T05:57:13.359Z,2.13
2023-01-03T05:59:39.871Z,2.25
2023-01-03T06:02:07.956Z,2.40
2023-01-03T06:04:34.790Z,2.40
2023-01-03T06:07:01.508Z,2.20
2023-01-03T06:09:28.051Z,2.30
2023-01-03T06:11:54.774Z,2.78
2023-01-03T06:14:21.427Z,2.70
2023-01-03T06:16:48.079Z,3.55
2023-01-03T06:19:16.047Z,2.43
2023-01-03T06:21:42.667Z,2.70
2023-01-03T06:24:09.970Z,3.10
2023-01-03T06:26:36.726Z,3.42
2023-01-03T06:29:04.028Z,3.17
2023-01-03T06:31:30.757Z,3.10
2023-01-03T06:33:57.601Z,3.10
2023-01-03T06:36:25.593Z,2.95
2023-01-03T06:38:52.551Z,3.00
2023-01-03T06:41:19.692Z,2.95
2023-01-03T06:43:46.441Z,2.70
2023-01-03T06:46:13.835Z,3.55
2023-01-03T06:48:40.611Z,3.20
2023-01-03T06:51:09.019Z,3.00
2023-01-03T06:53:38.631Z,2.90
2023-01-03T06:56:06.096Z,2.50
2023-01-03T06:58:33.327Z,2.83
2023-01-03T07:01:01.915Z,2.38
2023-01-03T07:03:28.741Z,2.90
2023-01-03T07:05:55.275Z,2.70
2023-01-03T07:08:22.023Z,2.40
2023-01-03T07:10:49.956Z,2.65
2023-01-03T07:13:16.853Z,2.80
2023-01-03T07:15:43.943Z,2.40
2023-01-03T07:18:10.487Z,2.90
2023-01-03T07:20:40.753Z,2.60
2023-01-03T07:23:07.272Z,2.28
2023-01-03T07:25:33.887Z,2.38
2023-01-03T07:28:06.388Z,2.30
2023-01-03T07:30:39.033Z,2.50
2023-01-03T07:33:05.910Z,2.40
2023-01-03T07:35:33.162Z,2.30
2023-01-03T07:37:59.708Z,2.45
2023-01-03T07:40:26.439Z,2.50
2023-01-03T07:42:52.994Z,2.58
2023-01-03T07:45:20.866Z,2.70
2023-01-03T07:47:47.484Z,2.45
2023-01-03T07:50:14.239Z,2.20
2023-01-03T07:52:40.809Z,2.45
2023-01-03T07:55:07.808Z,4.18
2023-01-03T07:57:34.358Z,2.23
2023-01-03T08:00:00.895Z,2.28
2023-01-03T08:02:28.836Z,2.45
2023-01-03T08:04:55.565Z,2.28
2023-01-03T08:07:22.295Z,2.22
2023-01-03T08:09:48.817Z,2.60
2023-01-03T08:12:15.328Z,2.80
2023-01-03T08:14:41.880Z,2.88
2023-01-03T08:17:08.369Z,2.60
2023-01-03T08:19:40.298Z,2.28
2023-01-03T08:22:11.782Z,2.93
2023-01-03T08:24:38.451Z,3.10
2023-01-03T08:27:05.013Z,3.20
2023-01-03T08:29:31.638Z,2.60
2023-01-03T08:31:58.381Z,3.70
2023-01-03T08:34:30.193Z,3.43
2023-01-03T08:37:01.832Z,2.08
2023-01-03T08:39:37.311Z,2.50
2023-01-03T08:42:07.071Z,1.65
2023-01-03T08:44:33.916Z,1.73
2023-01-03T08:47:06.925Z,1.73
2023-01-03T08:49:34.829Z,2.00
2023-01-03T08:52:02.781Z,2.20
2023-01-03T08:54:29.531Z,1.90
2023-01-03T08:56:56.164Z,2.22
2023-01-03T08:59:25.262Z,1.33
2023-01-03T09:01:52.145Z,1.60
2023-01-03T09:04:18.886Z,1.80
2023-01-03T09:06:45.643Z,2.13
2023-01-03T09:09:13.572Z,2.58
2023-01-03T09:11:40.133Z,2.30
2023-01-03T09:14:06.706Z,2.50
2023-01-03T09:16:33.478Z,2.42
2023-01-03T09:19:00.072Z,1.88
2023-01-03T09:21:26.636Z,2.15
2023-01-03T09:23:53.169Z,2.10
2023-01-03T09:26:21.308Z,1.85
2023-01-03T09:28:48.014Z,2.05
2023-01-03T09:31:14.585Z,1.92
2023-01-03T09:33:41.473Z,2.17
2023-01-03T09:36:08.431Z,1.70
2023-01-03T09:38:35.271Z,3.13
2023-01-03T09:41:04.102Z,2.53
2023-01-03T09:43:37.432Z,2.67
2023-01-03T09:46:04.591Z,2.17
2023-01-03T09:48:34.483Z,2.40
2023-01-03T09:51:22.560Z,2.85
2023-01-03T09:53:48.529Z,3.08
2023-01-03T09:56:15.223Z,2.90
2023-01-03T09:58:52.443Z,5.93
2023-01-03T10:01:31.149Z,3.47
2023-01-03T10:04:11.334Z,4.57
2023-01-03T10:06:48.379Z,3.97
2023-01-03T10:09:27.645Z,3.40
2023-01-03T10:12:05.658Z,2.83
2023-01-03T10:14:45.792Z,3.27
2023-01-03T10:17:22.787Z,3.28
2023-01-03T10:20:14.218Z,3.50
2023-01-03T10:22:41.110Z,3.10
2023-01-03T10:25:12.260Z,4.10
2023-01-03T10:27:45.365Z,6.10
2023-01-03T10:30:17.602Z,3.40
2023-01-03T10:33:15.384Z,3.67
2023-01-03T10:35:41.910Z,4.00
2023-01-03T10:38:08.446Z,3.60
2023-01-03T10:40:38.681Z,3.70
2023-01-03T10:43:17.677Z,3.10
2023-01-03T10:45:56.446Z,3.33
2023-01-03T10:48:23.470Z,2.85
2023-01-03T10:50:50.632Z,3.70
2023-01-03T10:53:21.357Z,3.50
2023-01-03T10:55:50.896Z,3.22
2023-01-03T10:58:21.958Z,3.60
2023-01-03T11:00:49.089Z,3.60
2023-01-03T11:03:19.892Z,2.90
2023-01-03T11:05:48.312Z,3.00
2023-01-03T11:08:21.180Z,2.92
2023-01-03T11:10:56.683Z,2.75
2023-01-03T11:13:26.998Z,3.28
2023-01-03T11:15:54.910Z,4.22
2023-01-03T11:18:24.417Z,3.07
2023-01-03T11:21:04.442Z,3.00
2023-01-03T11:23:47.291Z,2.53
2023-01-03T11:26:23.556Z,5.35
2023-01-03T11:29:08.939Z,3.13
2023-01-03T11:31:48.258Z,2.50
2023-01-03T11:34:48.190Z,2.35
2023-01-03T11:37:24.145Z,2.78
2023-01-03T11:40:02.905Z,2.58
2023-01-03T11:42:38.520Z,2.70
2023-01-03T11:45:40.571Z,2.40
2023-01-03T11:48:36.648Z,2.30
2023-01-03T11:51:14.238Z,2.95
2023-01-03T11:53:55.262Z,2.30
2023-01-03T11:56:28.704Z,2.35
2023-01-03T11:59:19.058Z,2.50
2023-01-03T12:02:11.264Z,2.55
2023-01-03T12:04:51.253Z,3.10
2023-01-03T12:10:18.599Z,3.38
2023-01-03T12:13:14.664Z,2.80
2023-01-03T12:15:47.743Z,2.70
2023-01-03T12:18:22.307Z,2.53
2023-01-03T12:20:55.059Z,3.05
2023-01-03T12:23:32.217Z,2.22
2023-01-03T12:26:02.634Z,2.30
2023-01-03T12:28:35.119Z,2.20
2023-01-03T12:31:09.319Z,2.33
2023-01-03T12:33:42.535Z,2.30
2023-01-03T12:36:24.207Z,2.33
2023-01-03T12:38:59.688Z,2.97
2023-01-03T12:41:34.420Z,2.47
2023-01-03T12:44:07.523Z,3.17
2023-01-03T12:46:37.860Z,2.45
2023-01-03T12:49:10.351Z,2.60
2023-01-03T12:51:37.095Z,2.40
2023-01-03T12:54:21.976Z,1.95
2023-01-03T12:57:03.167Z,2.15
2023-01-03T12:59:44.643Z,2.03
2023-01-03T13:02:21.300Z,1.90
2023-01-03T13:04:51.199Z,1.70
2023-01-03T13:07:22.701Z,1.92
2023-01-03T13:10:00.572Z,2.08
2023-01-03T13:12:30.758Z,1.60
2023-01-03T13:15:14.496Z,4.00
2023-01-03T13:17:46.952Z,3.93
2023-01-03T13:20:32.371Z,1.92
2023-01-03T13:22:59.456Z,2.20
2023-01-03T13:25:41.010Z,2.10
2023-01-03T13:28:32.348Z,2.05
2023-01-03T13:31:32.352Z,2.03
2023-01-03T13:34:15.832Z,2.60
2023-01-03T13:37:12.109Z,1.80
2023-01-03T13:39:40.341Z,2.30
2023-01-03T13:42:20.621Z,2.67
2023-01-03T13:44:47.334Z,2.70
2023-01-03T13:47:25.451Z,2.40
2023-01-03T13:49:54.183Z,2.00
2023-01-03T13:52:36.668Z,1.80
2023-01-03T13:55:03.589Z,2.42
2023-01-03T13:57:36.752Z,1.90
2023-01-03T14:00:14.061Z,1.92
2023-01-03T14:03:06.481Z,2.20
2023-01-03T14:05:55.157Z,1.65
2023-01-03T14:08:46.999Z,2.03
2023-01-03T14:11:47.446Z,2.40
2023-01-03T14:14:18.432Z,2.00
2023-01-03T14:16:47.283Z,2.13
2023-01-03T14:19:21.428Z,1.98
2023-01-03T14:21:52.876Z,2.30
2023-01-03T14:24:24.098Z,2.10
2023-01-03T14:26:51.738Z,2.10
2023-01-03T14:29:23.093Z,2.00
2023-01-03T14:31:51.991Z,2.33
2023-01-03T14:34:29.157Z,2.10
2023-01-03T14:37:01.508Z,2.20
2023-01-03T14:39:28.078Z,2.65
2023-01-03T14:41:56.314Z,3.10
2023-01-03T14:44:24.233Z,2.25
2023-01-03T14:46:53.127Z,2.65
2023-01-03T14:49:22.672Z,2.60
2023-01-03T14:51:49.522Z,2.80
2023-01-03T14:54:19.266Z,3.35
2023-01-03T14:56:46.705Z,2.83
2023-01-03T14:59:16.179Z,2.58
2023-01-03T15:01:44.738Z,2.70
2023-01-03T15:04:14.094Z,2.80
2023-01-03T15:07:02.305Z,3.15
2023-01-03T15:09:34.413Z,2.80
2023-01-03T15:12:03.876Z,3.20
2023-01-03T15:14:32.983Z,2.47
2023-01-03T15:17:14.508Z,2.60
2023-01-03T15:19:48.678Z,3.00
2023-01-03T15:22:18.963Z,3.20
2023-01-03T15:24:48.128Z,3.03
2023-01-03T15:27:43.841Z,2.87
2023-01-03T15:30:18.276Z,3.17
2023-01-03T15:32:49.759Z,3.10
2023-01-03T15:35:21.979Z,3.25
2023-01-03T15:37:53.305Z,2.90
2023-01-03T15:40:20.133Z,3.10
2023-01-03T15:42:51.965Z,3.50
2023-01-03T15:45:24.304Z,3.10
2023-01-03T15:47:56.570Z,3.05
2023-01-03T15:50:27.365Z,3.05
2023-01-03T15:52:54.042Z,2.60
2023-01-03T15:55:22.251Z,2.80
2023-01-03T15:57:51.262Z,2.92
2023-01-03T16:00:20.155Z,3.03
2023-01-03T16:02:47.682Z,2.47
2023-01-03T16:05:22.098Z,2.10
2023-01-03T16:07:50.000Z,2.20
2023-01-03T16:10:16.731Z,2.20
2023-01-03T16:12:43.792Z,2.20
2023-01-03T16:15:17.785Z,2.50
2023-01-03T16:17:44.897Z,1.83
2023-01-03T16:20:16.167Z,1.98
2023-01-03T16:22:55.855Z,2.10
2023-01-03T16:25:26.833Z,2.63
2023-01-03T16:27:53.421Z,2.80
2023-01-03T16:30:20.036Z,2.60
2023-01-03T16:32:46.619Z,2.05
2023-01-03T16:35:18.660Z,2.10
2023-01-03T16:37:45.296Z,2.50
2023-01-03T16:40:14.267Z,2.53
2023-01-03T16:42:40.852Z,2.40
2023-01-03T16:45:08.378Z,2.60
2023-01-03T16:47:35.169Z,2.80
2023-01-03T16:50:05.331Z,2.67
2023-01-03T16:52:36.941Z,4.25
2023-01-03T16:55:12.774Z,2.77
2023-01-03T16:57:39.361Z,2.83
2023-01-03T17:00:15.811Z,3.03
2023-01-03T17:02:42.606Z,3.03
2023-01-03T17:05:09.780Z,2.83
2023-01-03T17:07:38.017Z,3.03
2023-01-03T17:10:05.693Z,2.70
2023-01-03T17:12:32.296Z,2.92
2023-01-03T17:14:58.853Z,2.55
2023-01-03T17:17:25.391Z,2.60
2023-01-03T17:20:07.358Z,3.23
2023-01-03T17:22:34.084Z,3.33
2023-01-03T17:25:02.189Z,3.97
2023-01-03T17:27:32.670Z,2.90
2023-01-03T17:30:03.352Z,3.00
2023-01-03T17:32:30.367Z,2.60
2023-01-03T17:34:57.021Z,3.65
2023-01-03T17:37:23.896Z,3.13
2023-01-03T17:39:54.035Z,3.00
2023-01-03T17:42:22.769Z,3.00
2023-01-03T17:44:50.863Z,4.93
2023-01-03T17:47:21.632Z,3.03
2023-01-03T17:49:48.311Z,3.22
2023-01-03T17:52:23.708Z,2.50
2023-01-03T17:54:51.371Z,3.30
2023-01-03T17:57:18.172Z,2.80
2023-01-03T17:59:46.094Z,2.60
2023-01-03T18:02:17.428Z,4.25
2023-01-03T18:05:14.193Z,3.60
2023-01-03T18:07:30.977Z,3.25
2023-01-03T18:09:57.790Z,5.30
2023-01-03T18:12:24.586Z,2.90
2023-01-03T18:14:52.544Z,3.28
2023-01-03T18:17:28.291Z,2.92
2023-01-03T18:19:55.056Z,2.95
2023-01-03T18:22:22.980Z,2.90
2023-01-03T18:24:51.152Z,3.38
2023-01-03T18:27:18.710Z,3.28
2023-01-03T18:29:45.464Z,2.65
2023-01-03T18:32:25.862Z,3.28
2023-01-03T18:34:52.658Z,2.47
2023-01-03T18:37:21.301Z,3.53
2023-01-03T18:39:48.058Z,3.15
2023-01-03T18:42:14.878Z,3.58
2023-01-03T18:44:41.593Z,3.50
2023-01-03T18:47:12.158Z,3.87
2023-01-03T18:49:40.112Z,4.28
2023-01-03T18:52:07.071Z,3.83
2023-01-03T18:54:38.126Z,3.78
2023-01-03T18:57:04.736Z,4.18
2023-01-03T18:59:31.486Z,4.90
2023-01-03T19:01:58.318Z,4.85
2023-01-03T19:04:25.015Z,3.55
2023-01-03T19:06:53.140Z,4.18
2023-01-03T19:09:22.743Z,3.88
2023-01-03T19:11:50.339Z,3.30
2023-01-03T19:14:17.050Z,3.58
2023-01-03T19:16:43.622Z,3.58
2023-01-03T19:19:10.957Z,2.85
2023-01-03T19:21:39.912Z,3.72
2023-01-03T19:24:19.606Z,3.23
2023-01-03T19:26:51.767Z,3.65
2023-01-03T19:29:21.957Z,2.70
2023-01-03T19:31:50.485Z,3.30
2023-01-03T19:34:18.528Z,3.95
2023-01-03T19:36:45.337Z,3.97
2023-01-03T19:39:13.707Z,2.80
2023-01-03T19:41:44.427Z,3.13
2023-01-03T19:44:11.123Z,2.60
2023-01-03T19:46:37.734Z,3.40
2023-01-03T19:49:10.644Z,3.50
2023-01-03T19:51:37.192Z,3.20
2023-01-03T19:54:04.013Z,3.20
2023-01-03T19:56:32.294Z,3.05
2023-01-03T19:59:03.040Z,3.53
2023-01-03T20:01:43.997Z,3.87
2023-01-03T20:04:18.853Z,3.20
2023-01-03T20:06:45.547Z,3.58
2023-01-03T20:09:12.071Z,3.70
2023-01-03T20:11:41.077Z,3.38
2023-01-03T20:14:18.016Z,3.10
2023-01-03T20:16:44.728Z,4.00
2023-01-03T20:19:16.192Z,3.38
2023-01-03T20:21:43.243Z,3.15
2023-01-03T20:24:20.195Z,3.20
2023-01-03T20:26:48.444Z,3.33
2023-01-03T20:29:15.010Z,3.05
2023-01-03T20:31:41.651Z,3.00
2023-01-03T20:34:08.438Z,3.30
2023-01-03T20:36:37.702Z,3.38
2023-01-03T20:39:04.598Z,2.73
2023-01-03T20:41:31.138Z,2.72
2023-01-03T20:43:59.057Z,2.90
2023-01-03T20:46:26.073Z,2.83
2023-01-03T20:48:56.156Z,3.22
2023-01-03T20:51:23.158Z,2.83
2023-01-03T20:53:54.407Z,3.00
2023-01-03T20:56:22.019Z,3.10
2023-01-03T20:58:48.646Z,3.15
2023-01-03T21:01:16.878Z,3.38
2023-01-03T21:03:43.580Z,3.10
2023-01-03T21:06:17.170Z,3.28
2023-01-03T21:08:43.724Z,3.20
2023-01-03T21:11:10.340Z,2.70
2023-01-03T21:13:36.853Z,3.70
2023-01-03T21:16:05.731Z,2.60
2023-01-03T21:18:33.619Z,2.95
2023-01-03T21:21:04.843Z,2.95
2023-01-03T21:23:31.348Z,2.47
2023-01-03T21:25:57.945Z,2.75
2023-01-03T21:28:24.527Z,2.23
2023-01-03T21:30:51.153Z,2.58
2023-01-03T21:33:18.470Z,2.50
2023-01-03T21:35:46.453Z,2.50
2023-01-03T21:38:13.019Z,2.78
2023-01-03T21:40:39.932Z,2.90
2023-01-03T21:43:06.656Z,3.00
2023-01-03T21:45:35.662Z,2.63
2023-01-03T21:48:04.309Z,2.60
2023-01-03T21:50:31.926Z,2.58
2023-01-03T21:53:00.034Z,2.43
2023-01-03T21:55:27.032Z,2.50
2023-01-03T21:57:53.583Z,2.22
2023-01-03T22:00:20.372Z,2.22
2023-01-03T22:02:47.148Z,2.50
2023-01-03T22:05:13.951Z,2.40
2023-01-03T22:07:40.545Z,2.60
2023-01-03T22:10:08.996Z,2.60
2023-01-03T22:12:35.558Z,2.78
2023-01-03T22:15:02.379Z,2.85
2023-01-03T22:17:28.914Z,2.37
2023-01-03T22:19:55.418Z,2.40
2023-01-03T22:22:21.930Z,3.40
2023-01-03T22:24:48.635Z,2.50
2023-01-03T22:27:16.846Z,2.75
2023-01-03T22:29:43.409Z,3.17
2023-01-03T22:32:10.694Z,1.60
2023-01-03T22:34:38.146Z,2.38
2023-01-03T22:37:04.859Z,2.58
2023-01-03T22:39:31.409Z,2.30
2023-01-03T22:41:57.921Z,2.13
2023-01-03T22:44:26.069Z,2.40
2023-01-03T22:46:52.693Z,3.13
2023-01-03T22:49:19.241Z,2.28
2023-01-03T22:51:45.967Z,2.63
2023-01-03T22:54:12.477Z,2.47
2023-01-03T22:56:39.197Z,2.22
2023-01-03T22:59:05.848Z,2.33
2023-01-03T23:01:33.816Z,2.72
2023-01-03T23:04:00.714Z,2.30
2023-01-03T23:06:29.493Z,2.60
2023-01-03T23:08:56.149Z,2.58
2023-01-03T23:11:31.453Z,2.67
2023-01-03T23:14:00.850Z,2.53
2023-01-03T23:16:27.616Z,2.70
2023-01-03T23:18:55.599Z,2.33
2023-01-03T23:21:22.145Z,2.40
2023-01-03T23:23:49.708Z,2.72
2023-01-03T23:26:17.045Z,2.58
2023-01-03T23:28:43.560Z,2.65
2023-01-03T23:31:10.329Z,2.33
2023-01-03T23:33:37.043Z,2.60
2023-01-03T23:36:06.440Z,2.95
2023-01-03T23:38:32.999Z,2.50
2023-01-03T23:40:59.952Z,2.75
2023-01-03T23:43:26.526Z,2.50
2023-01-03T23:45:53.066Z,2.50
2023-01-03T23:48:19.767Z,2.35
2023-01-03T23:50:46.347Z,2.40
2023-01-03T23:53:14.291Z,2.70
2023-01-03T23:55:40.850Z,2.60
2023-01-03T23:58:07.420Z,2.33
